createdAt,value
2022-10-16T00:01:11.876Z,94087.66
2022-10-16T00:03:39.729Z,94086.88
2022-10-16T00:06:07.443Z,94088.50
2022-10-16T00:08:36.456Z,94087.66
2022-10-16T00:11:04.529Z,94086.88
2022-10-16T00:13:32.123Z,94091.47
2022-10-16T00:15:59.801Z,94099.63
2022-10-16T00:18:27.641Z,94087.97
2022-10-16T00:23:23.831Z,94089.03
2022-10-16T00:25:59.012Z,94089.84
2022-10-16T00:28:26.619Z,94092.81
2022-10-16T00:30:54.318Z,94099.91
2022-10-16T00:33:21.897Z,94100.97
2022-10-16T00:35:49.528Z,94097.44
2022-10-16T00:38:17.072Z,94097.44
2022-10-16T00:40:44.803Z,94102.06
2022-10-16T00:43:38.448Z,94100.44
2022-10-16T00:46:07.301Z,94100.44
2022-10-16T00:48:34.940Z,94106.16
2022-10-16T00:51:02.500Z,94102.34
2022-10-16T00:53:30.173Z,94101.81
2022-10-16T00:55:57.702Z,94100.72
2022-10-16T00:58:26.578Z,94096.38
2022-10-16T01:00:54.299Z,94096.38
2022-10-16T01:03:26.953Z,94096.38
2022-10-16T01:06:00.565Z,94103.69
2022-10-16T01:08:29.857Z,94111.06
2022-10-16T01:10:59.177Z,94107.50
2022-10-16T01:13:29.928Z,94103.97
2022-10-16T01:16:00.521Z,94105.63
2022-10-16T01:18:31.028Z,94110.22
2022-10-16T01:21:01.440Z,94109.38
2022-10-16T01:23:36.746Z,94106.13
2022-10-16T01:26:15.495Z,94115.91
2022-10-16T01:28:46.866Z,94117.00
2022-10-16T01:31:14.490Z,94112.41
2022-10-16T01:33:43.796Z,94104.25
2022-10-16T01:36:13.899Z,94113.19
2022-10-16T01:38:41.764Z,94110.78
2022-10-16T01:41:11.848Z,94103.44
2022-10-16T01:43:40.541Z,94094.50
2022-10-16T01:46:09.460Z,94099.09
2022-10-16T01:48:37.071Z,94098.28
2022-10-16T01:51:05.792Z,94103.97
2022-10-16T01:53:33.350Z,94102.09
2022-10-16T01:56:01.055Z,94109.41
2022-10-16T01:58:28.846Z,94111.03
2022-10-16T02:00:56.482Z,94102.88
2022-10-16T02:03:25.484Z,94101.25
2022-10-16T02:05:53.830Z,94094.22
2022-10-16T02:08:21.533Z,94098.56
2022-10-16T02:10:49.101Z,94091.50
2022-10-16T02:13:19.052Z,94092.31
2022-10-16T02:15:46.587Z,94085.25
2022-10-16T02:18:14.136Z,94094.22
2022-10-16T02:20:46.295Z,94098.00
2022-10-16T02:23:14.786Z,94097.19
2022-10-16T02:25:42.611Z,94110.75
2022-10-16T02:28:13.513Z,94109.97
2022-10-16T02:30:42.548Z,94115.38
2022-10-16T02:33:11.693Z,94105.63
2022-10-16T02:35:39.282Z,94102.91
2022-10-16T02:38:08.347Z,94093.94
2022-10-16T02:40:35.876Z,94094.75
2022-10-16T02:43:05.093Z,94102.06
2022-10-16T02:45:32.656Z,94095.84
2022-10-16T02:48:00.202Z,94105.63
2022-10-16T02:50:27.877Z,94096.66
2022-10-16T02:52:55.427Z,94102.06
2022-10-16T02:55:24.373Z,94109.44
2022-10-16T02:57:51.918Z,94125.72
2022-10-16T03:00:19.820Z,94117.03
2022-10-16T03:02:47.607Z,94111.59
2022-10-16T03:05:15.202Z,94116.19
2022-10-16T03:07:42.772Z,94116.19
2022-10-16T03:10:10.623Z,94122.47
2022-10-16T03:12:39.524Z,94109.94
2022-10-16T03:15:08.153Z,94109.94
2022-10-16T03:17:35.773Z,94107.22
2022-10-16T03:20:03.317Z,94099.09
2022-10-16T03:22:30.859Z,94108.31
2022-10-16T03:25:16.832Z,94105.59
2022-10-16T03:27:45.955Z,94104.81
2022-10-16T03:30:14.160Z,94097.47
2022-10-16T03:32:41.727Z,94103.19
2022-10-16T03:35:09.644Z,94105.06
2022-10-16T03:37:37.331Z,94104.81
2022-10-16T03:40:05.257Z,94095.84
2022-10-16T03:42:32.801Z,94093.13
2022-10-16T03:45:01.677Z,94101.25
2022-10-16T03:47:29.393Z,94100.47
2022-10-16T03:49:57.161Z,94105.06
2022-10-16T03:52:24.764Z,94100.47
2022-10-16T03:54:52.325Z,94094.22
2022-10-16T03:57:19.916Z,94110.50
2022-10-16T03:59:47.453Z,94114.28
2022-10-16T04:02:16.372Z,94115.13
2022-10-16T04:04:43.950Z,94121.34
2022-10-16T04:07:11.497Z,94121.34
2022-10-16T04:09:39.037Z,94109.69
2022-10-16T04:12:06.575Z,94093.69
2022-10-16T04:14:34.169Z,94086.38
2022-10-16T04:17:01.751Z,94087.44
2022-10-16T04:19:30.637Z,94097.47
2022-10-16T04:21:58.184Z,94109.97
2022-10-16T04:24:25.745Z,94116.47
2022-10-16T04:26:53.344Z,94125.16
2022-10-16T04:29:21.097Z,94119.19
2022-10-16T04:31:48.660Z,94112.13
2022-10-16T04:34:16.396Z,94111.06
2022-10-16T04:36:45.260Z,94101.03
2022-10-16T04:39:12.825Z,94098.56
2022-10-16T04:41:40.367Z,94098.56
2022-10-16T04:44:07.988Z,94104.81
2022-10-16T04:46:35.538Z,94117.56
2022-10-16T04:49:03.072Z,94117.56
2022-10-16T04:51:30.623Z,94113.22
2022-10-16T04:53:59.479Z,94118.66
2022-10-16T04:56:27.028Z,94124.06
2022-10-16T04:59:13.122Z,94133.31
2022-10-16T05:01:40.865Z,94134.94
2022-10-16T05:04:08.449Z,94144.16
2022-10-16T05:06:36.023Z,94132.47
2022-10-16T05:09:04.981Z,94138.72
2022-10-16T05:11:32.573Z,94136.03
2022-10-16T05:14:00.321Z,94143.34
2022-10-16T05:16:27.938Z,94142.53
2022-10-16T05:18:56.279Z,94151.47
2022-10-16T05:21:37.951Z,94147.97
2022-10-16T05:24:07.003Z,94153.38
2022-10-16T05:26:34.540Z,94149.84
2022-10-16T05:29:02.130Z,94140.91
2022-10-16T05:31:29.768Z,94137.09
2022-10-16T05:34:00.359Z,94138.19
2022-10-16T05:36:27.984Z,94139.28
2022-10-16T05:38:55.575Z,94136.56
2022-10-16T05:41:26.641Z,94145.50
2022-10-16T05:43:54.196Z,94150.13
2022-10-16T05:46:21.749Z,94153.66
2022-10-16T05:48:49.289Z,94159.06
2022-10-16T05:51:16.864Z,94154.75
2022-10-16T05:56:17.075Z,94170.19
2022-10-16T05:58:46.152Z,94166.66
2022-10-16T06:01:14.760Z,94173.72
2022-10-16T06:03:42.421Z,94176.66
2022-10-16T06:06:12.372Z,94186.47
2022-10-16T06:08:40.494Z,94177.50
2022-10-16T06:11:08.758Z,94176.66
2022-10-16T06:13:36.377Z,94182.09
2022-10-16T06:16:05.968Z,94184.81
2022-10-16T06:18:33.629Z,94182.09
2022-10-16T06:21:01.165Z,94184.81
2022-10-16T06:23:30.184Z,94192.94
2022-10-16T06:26:06.369Z,94189.44
2022-10-16T06:28:34.036Z,94192.16
2022-10-16T06:31:04.275Z,94195.66
2022-10-16T06:33:36.363Z,94199.47
2022-10-16T06:36:04.558Z,94202.19
2022-10-16T06:38:32.241Z,94207.59
2022-10-16T06:40:59.961Z,94208.44
2022-10-16T06:43:27.609Z,94208.69
2022-10-16T06:45:55.456Z,94215.22
2022-10-16T06:48:23.197Z,94220.38
2022-10-16T06:50:59.434Z,94222.00
2022-10-16T06:53:27.186Z,94222.81
2022-10-16T06:55:54.712Z,94223.63
2022-10-16T06:58:22.817Z,94225.53
2022-10-16T07:00:50.394Z,94233.66
2022-10-16T07:03:17.994Z,94241.56
2022-10-16T07:05:45.603Z,94247.81
2022-10-16T07:08:14.585Z,94243.19
2022-10-16T07:10:42.107Z,94246.75
2022-10-16T07:13:09.661Z,94251.09
2022-10-16T07:15:37.225Z,94250.25
2022-10-16T07:18:04.768Z,94257.31
2022-10-16T07:20:32.603Z,94260.84
2022-10-16T07:23:00.173Z,94263.56
2022-10-16T07:25:29.120Z,94260.84
2022-10-16T07:27:57.727Z,94270.63
2022-10-16T07:30:25.309Z,94267.09
2022-10-16T07:32:52.872Z,94270.38
2022-10-16T07:35:20.484Z,94275.78
2022-10-16T07:37:48.093Z,94270.38
2022-10-16T07:40:15.669Z,94275.50
2022-10-16T07:42:44.616Z,94279.31
2022-10-16T07:45:12.303Z,94283.94
2022-10-16T07:47:39.955Z,94287.44
2022-10-16T07:50:07.991Z,94291.00
2022-10-16T07:52:35.541Z,94286.66
2022-10-16T07:55:03.977Z,94286.38
2022-10-16T07:57:31.555Z,94291.78
2022-10-16T08:00:00.454Z,94298.31
2022-10-16T08:02:28.083Z,94304.28
2022-10-16T08:04:55.603Z,94302.66
2022-10-16T08:07:23.181Z,94302.66
2022-10-16T08:09:52.432Z,94296.13
2022-10-16T08:12:19.996Z,94300.75
2022-10-16T08:14:47.834Z,94304.28
2022-10-16T08:17:17.393Z,94308.63
2022-10-16T08:19:46.718Z,94309.44
2022-10-16T08:24:41.810Z,94305.91
2022-10-16T08:27:09.900Z,94317.59
2022-10-16T08:29:37.422Z,94313.78
2022-10-16T08:32:05.853Z,94320.03
2022-10-16T08:34:34.790Z,94333.59
2022-10-16T08:37:02.962Z,94336.31
2022-10-16T08:39:30.749Z,94338.22
2022-10-16T08:42:10.917Z,94336.31
2022-10-16T08:45:11.019Z,94336.06
2022-10-16T08:47:46.189Z,94339.59
2022-10-16T08:50:15.929Z,94341.22
2022-10-16T08:52:44.998Z,94344.47
2022-10-16T08:55:25.264Z,94337.13
2022-10-16T08:57:52.851Z,94336.88
2022-10-16T09:00:20.820Z,94338.50
2022-10-16T09:02:52.712Z,94345.31
2022-10-16T09:05:25.466Z,94342.31
2022-10-16T09:10:40.793Z,94346.94
2022-10-16T09:13:14.236Z,94346.69
2022-10-16T09:15:42.297Z,94347.25
2022-10-16T09:18:13.201Z,94347.78
2022-10-16T09:20:46.956Z,94351.88
2022-10-16T09:23:16.683Z,94356.50
2022-10-16T09:25:46.653Z,94360.56
2022-10-16T09:28:14.309Z,94355.66
2022-10-16T09:30:41.869Z,94364.09
2022-10-16T09:33:10.176Z,94363.84
2022-10-16T09:35:39.281Z,94360.59
2022-10-16T09:38:08.849Z,94364.66
2022-10-16T09:40:37.311Z,94365.75
2022-10-16T09:43:10.100Z,94370.94
2022-10-16T09:45:37.671Z,94378.25
2022-10-16T09:48:12.306Z,94365.22
2022-10-16T09:50:40.046Z,94367.09
2022-10-16T09:53:12.850Z,94370.09
2022-10-16T09:55:50.125Z,94362.22
2022-10-16T09:58:17.738Z,94382.31
2022-10-16T10:00:50.968Z,94382.56
2022-10-16T10:03:27.706Z,94385.28
2022-10-16T10:05:58.495Z,94384.75
2022-10-16T10:08:30.248Z,94386.91
2022-10-16T10:10:58.257Z,94393.44
2022-10-16T10:13:26.698Z,94398.88
2022-10-16T10:15:54.489Z,94395.59
2022-10-16T10:18:24.790Z,94394.78
2022-10-16T10:20:59.551Z,94396.69
2022-10-16T10:23:28.256Z,94392.06
2022-10-16T10:25:58.694Z,94392.34
2022-10-16T10:28:33.170Z,94399.13
2022-10-16T10:31:03.472Z,94392.88
2022-10-16T10:33:37.523Z,94392.88
2022-10-16T10:36:11.311Z,94392.88
2022-10-16T10:38:43.008Z,94389.09
2022-10-16T10:41:21.360Z,94387.19
2022-10-16T10:43:55.955Z,94391.53
2022-10-16T10:46:27.206Z,94394.53
2022-10-16T10:49:09.112Z,94386.94
2022-10-16T10:51:40.530Z,94389.38
2022-10-16T10:54:13.157Z,94388.03
2022-10-16T10:56:48.980Z,94383.16
2022-10-16T10:59:52.746Z,94386.69
2022-10-16T11:02:23.592Z,94383.69
2022-10-16T11:05:05.268Z,94376.38
2022-10-16T11:07:34.260Z,94383.44
2022-10-16T11:10:04.864Z,94378.78
2022-10-16T11:12:34.225Z,94380.16
2022-10-16T11:15:04.373Z,94383.72
2022-10-16T11:17:33.672Z,94374.47
2022-10-16T11:20:03.788Z,94373.38
2022-10-16T11:22:33.907Z,94373.09
2022-10-16T11:25:03.923Z,94372.84
2022-10-16T11:27:37.941Z,94379.91
2022-10-16T11:30:07.633Z,94374.47
2022-10-16T11:32:36.537Z,94377.72
2022-10-16T11:35:07.041Z,94374.75
2022-10-16T11:37:36.013Z,94374.75
2022-10-16T11:40:07.493Z,94369.31
2022-10-16T11:42:38.994Z,94377.19
2022-10-16T11:45:26.248Z,94378.81
2022-10-16T11:47:59.556Z,94376.91
2022-10-16T11:50:30.563Z,94379.91
2022-10-16T11:53:02.351Z,94381.56
2022-10-16T11:55:32.431Z,94379.63
2022-10-16T11:58:03.402Z,94378.84
2022-10-16T12:00:33.049Z,94379.38
2022-10-16T12:03:03.129Z,94372.31
2022-10-16T12:05:35.513Z,94379.38
2022-10-16T12:08:07.538Z,94372.06
2022-10-16T12:13:31.466Z,94367.69
2022-10-16T12:16:07.347Z,94365.78
2022-10-16T12:18:35.024Z,94370.41
2022-10-16T12:21:06.475Z,94367.69
2022-10-16T12:23:34.204Z,94375.28
2022-10-16T12:26:03.192Z,94373.41
2022-10-16T12:28:32.826Z,94368.22
2022-10-16T12:31:01.275Z,94371.22
2022-10-16T12:33:30.120Z,94369.59
2022-10-16T12:35:57.813Z,94364.44
2022-10-16T12:38:27.920Z,94362.78
2022-10-16T12:41:00.941Z,94363.06
2022-10-16T12:43:37.276Z,94366.84
2022-10-16T12:46:06.926Z,94360.88
2022-10-16T12:48:48.318Z,94361.97
2022-10-16T12:51:24.689Z,94360.06
2022-10-16T12:54:00.511Z,94361.97
2022-10-16T12:56:33.242Z,94360.59
2022-10-16T12:59:07.632Z,94351.66
2022-10-16T13:01:39.784Z,94357.09
2022-10-16T13:04:27.320Z,94356.81
2022-10-16T13:06:57.346Z,94354.88
2022-10-16T13:09:33.106Z,94355.97
2022-10-16T13:12:17.301Z,94362.25
2022-10-16T13:15:04.310Z,94366.03
2022-10-16T13:17:34.234Z,94359.78
2022-10-16T13:20:05.143Z,94362.78
2022-10-16T13:22:34.923Z,94368.22
2022-10-16T13:25:13.136Z,94378.25
2022-10-16T13:27:43.577Z,94366.59
2022-10-16T13:30:15.938Z,94371.44
2022-10-16T13:32:46.811Z,94372.53
2022-10-16T13:35:21.437Z,94370.66
2022-10-16T13:37:48.973Z,94371.72
2022-10-16T13:40:21.279Z,94365.47
2022-10-16T13:42:48.816Z,94375.53
2022-10-16T13:45:21.604Z,94374.16
2022-10-16T13:47:49.263Z,94370.66
2022-10-16T13:50:17.820Z,94367.94
2022-10-16T13:52:45.455Z,94378.78
2022-10-16T13:55:13.757Z,94382.56
2022-10-16T13:57:41.467Z,94377.13
2022-10-16T14:00:24.544Z,94383.66
2022-10-16T14:02:54.053Z,94380.94
2022-10-16T14:05:21.572Z,94383.94
2022-10-16T14:07:50.981Z,94383.94
2022-10-16T14:10:22.550Z,94384.19
2022-10-16T14:12:56.883Z,94383.13
2022-10-16T14:15:25.792Z,94381.47
2022-10-16T14:17:53.716Z,94377.13
2022-10-16T14:20:22.065Z,94382.56
2022-10-16T14:22:49.610Z,94384.47
2022-10-16T14:25:28.448Z,94391.81
2022-10-16T14:30:37.434Z,94389.34
2022-10-16T14:33:05.999Z,94390.19
2022-10-16T14:35:34.522Z,94389.34
2022-10-16T14:38:03.272Z,94394.78
2022-10-16T14:40:31.716Z,94396.69
2022-10-16T14:42:59.423Z,94392.34
2022-10-16T14:45:29.021Z,94393.16
2022-10-16T14:47:59.306Z,94391.50
2022-10-16T14:50:26.986Z,94396.94
2022-10-16T14:52:54.513Z,94397.22
2022-10-16T14:55:22.053Z,94398.03
2022-10-16T14:57:49.622Z,94396.16
2022-10-16T15:00:19.397Z,94398.03
2022-10-16T15:02:46.928Z,94390.72
2022-10-16T15:05:17.949Z,94391.81
2022-10-16T15:07:45.804Z,94394.50
2022-10-16T15:10:13.584Z,94396.41
2022-10-16T15:12:41.207Z,94392.88
2022-10-16T15:15:23.626Z,94397.50
2022-10-16T15:17:53.385Z,94395.84
2022-10-16T15:20:22.377Z,94397.75
2022-10-16T15:22:49.933Z,94400.47
2022-10-16T15:25:28.185Z,94404.00
2022-10-16T15:27:55.729Z,94401.28
2022-10-16T15:30:23.274Z,94406.97
2022-10-16T15:32:50.837Z,94400.47
2022-10-16T15:35:18.585Z,94409.69
2022-10-16T15:37:48.087Z,94408.06
2022-10-16T15:40:15.834Z,94411.59
2022-10-16T15:42:43.398Z,94406.44
2022-10-16T15:45:11.441Z,94406.44
2022-10-16T15:47:42.305Z,94409.16
2022-10-16T15:50:13.125Z,94421.91
2022-10-16T15:52:41.200Z,94416.50
2022-10-16T15:55:10.784Z,94419.47
2022-10-16T15:57:39.590Z,94422.19
2022-10-16T16:00:10.709Z,94424.88
2022-10-16T16:02:38.655Z,94419.47
2022-10-16T16:05:07.388Z,94423.25
2022-10-16T16:07:35.217Z,94432.50
2022-10-16T16:10:02.773Z,94427.06
2022-10-16T16:12:31.649Z,94424.34
2022-10-16T16:15:02.018Z,94435.19
2022-10-16T16:17:32.567Z,94430.84
2022-10-16T16:20:00.107Z,94427.31
2022-10-16T16:22:27.964Z,94439.00
2022-10-16T16:24:55.702Z,94440.88
2022-10-16T16:27:25.965Z,94433.81
2022-10-16T16:29:56.181Z,94442.81
2022-10-16T16:32:23.752Z,94440.09
2022-10-16T16:34:51.369Z,94441.16
2022-10-16T16:37:19.030Z,94449.31
2022-10-16T16:39:46.579Z,94443.88
2022-10-16T16:42:14.123Z,94444.69
2022-10-16T16:44:41.683Z,94453.13
2022-10-16T16:47:11.101Z,94447.69
2022-10-16T16:49:38.695Z,94453.13
2022-10-16T16:52:06.578Z,94455.25
2022-10-16T16:57:06.638Z,94462.59
2022-10-16T16:59:34.540Z,94459.88
2022-10-16T17:02:02.098Z,94463.16
2022-10-16T17:04:30.980Z,94471.03
2022-10-16T17:06:58.546Z,94475.09
2022-10-16T17:09:26.103Z,94474.31
2022-10-16T17:11:53.860Z,94480.28
2022-10-16T17:14:21.383Z,94480.81
2022-10-16T17:16:49.789Z,94483.00
2022-10-16T17:19:18.316Z,94493.38
2022-10-16T17:21:47.332Z,94493.63
2022-10-16T17:24:14.931Z,94489.56
2022-10-16T17:26:48.654Z,94505.06
2022-10-16T17:29:16.301Z,94511.59
2022-10-16T17:31:43.994Z,94507.53
2022-10-16T17:34:12.117Z,94516.78
2022-10-16T17:36:43.671Z,94511.91
2022-10-16T17:39:13.966Z,94508.94
2022-10-16T17:41:41.529Z,94512.44
2022-10-16T17:44:09.326Z,94515.75
2022-10-16T17:46:40.196Z,94521.97
2022-10-16T17:49:08.845Z,94524.16
2022-10-16T17:51:36.558Z,94520.66
2022-10-16T17:54:04.589Z,94522.31
2022-10-16T17:56:33.920Z,94524.78
2022-10-16T17:59:02.013Z,94516.66
2022-10-16T18:01:30.754Z,94532.72
2022-10-16T18:03:59.923Z,94531.38
2022-10-16T18:06:27.557Z,94530.03
2022-10-16T18:08:55.287Z,94527.88
2022-10-16T18:11:22.944Z,94535.78
2022-10-16T18:13:54.017Z,94541.75
2022-10-16T18:16:21.542Z,94531.69
2022-10-16T18:18:49.252Z,94537.16
2022-10-16T18:21:17.745Z,94540.13
2022-10-16T18:23:50.791Z,94543.41
2022-10-16T18:26:20.372Z,94540.97
2022-10-16T18:28:48.140Z,94545.59
2022-10-16T18:31:17.870Z,94540.97
2022-10-16T18:33:48.520Z,94543.94
2022-10-16T18:36:16.314Z,94540.97
2022-10-16T18:38:43.899Z,94540.41
2022-10-16T18:41:11.552Z,94543.41
2022-10-16T18:43:39.597Z,94537.72
2022-10-16T18:46:07.839Z,94544.25
2022-10-16T18:48:37.540Z,94541.28
2022-10-16T18:51:10.096Z,94546.19
2022-10-16T18:53:37.927Z,94547.25
2022-10-16T18:56:06.118Z,94539.63
2022-10-16T18:58:34.709Z,94543.19
2022-10-16T19:01:06.085Z,94549.16
2022-10-16T19:03:33.653Z,94552.16
2022-10-16T19:06:03.205Z,94549.97
2022-10-16T19:08:32.177Z,94549.69
2022-10-16T19:11:03.826Z,94562.78
2022-10-16T19:13:31.597Z,94558.41
2022-10-16T19:16:09.411Z,94558.41
2022-10-16T19:18:46.762Z,94566.84
2022-10-16T19:21:15.856Z,94563.81
2022-10-16T19:23:43.786Z,94563.81
2022-10-16T19:26:12.794Z,94562.75
2022-10-16T19:28:40.687Z,94567.13
2022-10-16T19:31:11.433Z,94560.00
2022-10-16T19:33:39.092Z,94561.69
2022-10-16T19:36:10.446Z,94561.69
2022-10-16T19:38:39.460Z,94566.81
2022-10-16T19:41:08.319Z,94566.56
2022-10-16T19:43:36.051Z,94568.19
2022-10-16T19:46:05.198Z,94566.56
2022-10-16T19:48:32.770Z,94571.47
2022-10-16T19:51:00.434Z,94572.28
2022-10-16T19:53:28.390Z,94577.72
2022-10-16T19:55:57.448Z,94578.28
2022-10-16T19:58:25.157Z,94584.53
2022-10-16T20:00:52.733Z,94588.88
2022-10-16T20:03:20.277Z,94588.91
2022-10-16T20:05:52.234Z,94591.63
2022-10-16T20:08:19.789Z,94594.34
2022-10-16T20:10:50.920Z,94593.25
2022-10-16T20:13:20.055Z,94595.97
2022-10-16T20:15:47.576Z,94600.28
2022-10-16T20:18:15.612Z,94602.19
2022-10-16T20:20:44.199Z,94608.16
2022-10-16T20:23:11.964Z,94609.81
2022-10-16T20:25:39.909Z,94609.78
2022-10-16T20:28:07.804Z,94617.69
2022-10-16T20:30:36.782Z,94620.13
2022-10-16T20:33:04.421Z,94619.03
2022-10-16T20:35:36.565Z,94614.09
2022-10-16T20:38:04.130Z,94620.63
2022-10-16T20:40:32.116Z,94617.38
2022-10-16T20:42:59.640Z,94625.22
2022-10-16T20:45:27.175Z,94627.41
2022-10-16T20:47:56.076Z,94626.03
2022-10-16T20:50:23.629Z,94631.75
2022-10-16T20:52:51.208Z,94628.50
2022-10-16T20:55:18.795Z,94626.03
2022-10-16T20:57:46.412Z,94622.75
2022-10-16T21:00:14.752Z,94627.66
2022-10-16T21:02:42.305Z,94632.25
2022-10-16T21:05:11.297Z,94637.16
2022-10-16T21:07:38.875Z,94638.22
2022-10-16T21:10:07.514Z,94641.22
2022-10-16T21:12:35.082Z,94639.84
2022-10-16T21:15:16.673Z,94640.94
2022-10-16T21:17:44.244Z,94640.41
2022-10-16T21:20:13.175Z,94630.31
2022-10-16T21:22:40.738Z,94643.38
2022-10-16T21:25:09.017Z,94637.09
2022-10-16T21:27:37.889Z,94642.00
2022-10-16T21:30:06.392Z,94645.78
2022-10-16T21:32:36.000Z,94634.91
2022-10-16T21:35:03.656Z,94641.44
2022-10-16T21:37:33.138Z,94639.81
2022-10-16T21:40:00.725Z,94631.91
2022-10-16T21:42:28.817Z,94637.34
2022-10-16T21:44:56.532Z,94638.44
2022-10-16T21:47:24.111Z,94638.72
2022-10-16T21:49:51.885Z,94639.81
2022-10-16T21:52:19.408Z,94640.88
2022-10-16T21:54:48.341Z,94634.63
2022-10-16T21:57:15.866Z,94640.31
2022-10-16T21:59:43.433Z,94635.91
2022-10-16T22:02:10.960Z,94634.88
2022-10-16T22:04:38.495Z,94635.13
2022-10-16T22:07:06.054Z,94631.56
2022-10-16T22:09:33.568Z,94631.84
2022-10-16T22:12:02.444Z,94637.28
2022-10-16T22:14:29.983Z,94638.38
2022-10-16T22:16:57.564Z,94640.25
2022-10-16T22:19:25.533Z,94640.25
2022-10-16T22:21:57.126Z,94644.88
2022-10-16T22:24:24.997Z,94648.66
2022-10-16T22:26:52.608Z,94640.50
2022-10-16T22:29:21.485Z,94644.31
2022-10-16T22:31:51.946Z,94657.91
2022-10-16T22:34:19.506Z,94651.66
2022-10-16T22:36:47.055Z,94655.47
2022-10-16T22:39:14.593Z,94654.63
2022-10-16T22:41:42.370Z,94653.84
2022-10-16T22:44:12.502Z,94656.56
2022-10-16T22:46:41.640Z,94653.00
2022-10-16T22:49:09.189Z,94650.28
2022-10-16T22:51:36.809Z,94642.38
2022-10-16T22:54:04.531Z,94650.53
2022-10-16T22:56:32.201Z,94647.00
2022-10-16T22:58:59.772Z,94649.72
2022-10-16T23:01:29.188Z,94649.97
2022-10-16T23:03:58.255Z,94648.09
2022-10-16T23:06:25.894Z,94651.06
2022-10-16T23:08:53.665Z,94658.41
2022-10-16T23:11:21.397Z,94644.00
2022-10-16T23:13:48.935Z,94652.97
2022-10-16T23:16:17.680Z,94652.16
2022-10-16T23:18:45.318Z,94657.59
2022-10-16T23:21:15.579Z,94651.34
2022-10-16T23:23:43.216Z,94655.16
2022-10-16T23:26:11.837Z,94657.03
2022-10-16T23:28:39.552Z,94655.16
2022-10-16T23:31:07.272Z,94659.75
2022-10-16T23:33:34.971Z,94666.28
2022-10-16T23:36:05.014Z,94664.34
2022-10-16T23:38:33.933Z,94661.91
2022-10-16T23:41:01.516Z,94664.63
2022-10-16T23:43:29.253Z,94673.88
2022-10-16T23:45:56.825Z,94662.16
2022-10-16T23:48:24.400Z,94664.09
2022-10-16T23:50:51.968Z,94661.38
2022-10-16T23:53:19.534Z,94657.81
2022-10-16T23:55:48.434Z,94655.94
2022-10-16T23:58:15.984Z,94654.31
